sensor_id;sensor_type;location;lat;lon;timestamp;P1;durP1;ratioP1;P2;durP2;ratioP2
19826;SDS011;10074;52.018;4.726;2022-11-15T00:04:37;3.40;;;2.73;;
19826;SDS011;10074;52.018;4.726;2022-11-15T00:09:39;3.13;;;2.77;;
19826;SDS011;10074;52.018;4.726;2022-11-15T00:14:39;4.03;;;2.87;;
19826;SDS011;10074;52.018;4.726;2022-11-15T00:19:40;4.13;;;3.20;;
19826;SDS011;10074;52.018;4.726;2022-11-15T00:24:40;3.90;;;3.23;;
19826;SDS011;10074;52.018;4.726;2022-11-15T00:29:40;5.53;;;2.93;;
19826;SDS011;10074;52.018;4.726;2022-11-15T00:34:43;3.73;;;3.13;;
19826;SDS011;10074;52.018;4.726;2022-11-15T00:39:43;3.23;;;2.93;;
19826;SDS011;10074;52.018;4.726;2022-11-15T00:44:43;5.03;;;3.03;;
19826;SDS011;10074;52.018;4.726;2022-11-15T00:49:44;4.20;;;3.30;;
19826;SDS011;10074;52.018;4.726;2022-11-15T00:54:44;4.53;;;2.73;;
19826;SDS011;10074;52.018;4.726;2022-11-15T00:59:44;3.93;;;3.63;;
19826;SDS011;10074;52.018;4.726;2022-11-15T01:04:45;4.57;;;3.07;;
19826;SDS011;10074;52.018;4.726;2022-11-15T01:09:45;5.07;;;3.80;;
19826;SDS011;10074;52.018;4.726;2022-11-15T01:14:45;4.40;;;3.50;;
19826;SDS011;10074;52.018;4.726;2022-11-15T01:19:46;5.60;;;3.40;;
19826;SDS011;10074;52.018;4.726;2022-11-15T01:24:46;5.87;;;4.47;;
19826;SDS011;10074;52.018;4.726;2022-11-15T01:29:47;3.70;;;3.33;;
19826;SDS011;10074;52.018;4.726;2022-11-15T01:34:47;5.80;;;4.63;;
19826;SDS011;10074;52.018;4.726;2022-11-15T01:39:48;6.97;;;5.37;;
19826;SDS011;10074;52.018;4.726;2022-11-15T01:44:51;4.40;;;3.57;;
19826;SDS011;10074;52.018;4.726;2022-11-15T01:55:05;4.40;;;3.57;;
19826;SDS011;10074;52.018;4.726;2022-11-15T02:00:09;5.03;;;3.87;;
19826;SDS011;10074;52.018;4.726;2022-11-15T02:05:10;5.93;;;3.47;;
19826;SDS011;10074;52.018;4.726;2022-11-15T02:10:12;6.73;;;4.97;;
19826;SDS011;10074;52.018;4.726;2022-11-15T02:15:17;6.03;;;5.00;;
19826;SDS011;10074;52.018;4.726;2022-11-15T02:42:04;5.60;;;3.17;;
19826;SDS011;10074;52.018;4.726;2022-11-15T02:47:45;5.53;;;4.10;;
19826;SDS011;10074;52.018;4.726;2022-11-15T02:52:48;6.70;;;4.73;;
19826;SDS011;10074;52.018;4.726;2022-11-15T02:57:54;3.80;;;2.97;;
19826;SDS011;10074;52.018;4.726;2022-11-15T03:14:31;6.40;;;4.77;;
19826;SDS011;10074;52.018;4.726;2022-11-15T03:24:36;4.37;;;3.57;;
19826;SDS011;10074;52.018;4.726;2022-11-15T03:29:42;3.47;;;3.17;;
19826;SDS011;10074;52.018;4.726;2022-11-15T03:35:05;4.93;;;3.17;;
19826;SDS011;10074;52.018;4.726;2022-11-15T03:40:09;4.73;;;3.20;;
19826;SDS011;10074;52.018;4.726;2022-11-15T03:45:13;8.07;;;3.90;;
19826;SDS011;10074;52.018;4.726;2022-11-15T03:50:20;17.23;;;4.67;;
19826;SDS011;10074;52.018;4.726;2022-11-15T03:55:21;4.83;;;4.13;;
19826;SDS011;10074;52.018;4.726;2022-11-15T04:00:22;6.77;;;3.20;;
19826;SDS011;10074;52.018;4.726;2022-11-15T04:05:22;5.10;;;3.47;;
19826;SDS011;10074;52.018;4.726;2022-11-15T04:10:23;5.30;;;3.63;;
19826;SDS011;10074;52.018;4.726;2022-11-15T04:15:23;3.87;;;3.27;;
19826;SDS011;10074;52.018;4.726;2022-11-15T04:20:29;6.77;;;3.57;;
19826;SDS011;10074;52.018;4.726;2022-11-15T04:25:50;5.50;;;3.27;;
19826;SDS011;10074;52.018;4.726;2022-11-15T04:30:52;3.60;;;3.27;;
19826;SDS011;10074;52.018;4.726;2022-11-15T04:35:52;2.63;;;2.43;;
19826;SDS011;10074;52.018;4.726;2022-11-15T04:41:11;4.60;;;2.90;;
19826;SDS011;10074;52.018;4.726;2022-11-15T04:46:12;3.00;;;2.50;;
19826;SDS011;10074;52.018;4.726;2022-11-15T04:51:12;2.60;;;2.40;;
19826;SDS011;10074;52.018;4.726;2022-11-15T04:56:13;2.00;;;1.80;;
19826;SDS011;10074;52.018;4.726;2022-11-15T05:01:13;6.37;;;3.33;;
19826;SDS011;10074;52.018;4.726;2022-11-15T05:06:14;2.83;;;2.40;;
19826;SDS011;10074;52.018;4.726;2022-11-15T05:11:15;4.03;;;3.07;;
19826;SDS011;10074;52.018;4.726;2022-11-15T05:16:15;4.93;;;2.70;;
19826;SDS011;10074;52.018;4.726;2022-11-15T05:21:16;5.17;;;3.33;;
19826;SDS011;10074;52.018;4.726;2022-11-15T05:26:17;3.90;;;2.50;;
19826;SDS011;10074;52.018;4.726;2022-11-15T05:31:18;3.70;;;2.23;;
19826;SDS011;10074;52.018;4.726;2022-11-15T05:36:29;3.70;;;2.77;;
19826;SDS011;10074;52.018;4.726;2022-11-15T05:41:49;4.93;;;2.07;;
19826;SDS011;10074;52.018;4.726;2022-11-15T05:46:54;1.50;;;1.40;;
19826;SDS011;10074;52.018;4.726;2022-11-15T05:51:56;3.33;;;2.47;;
19826;SDS011;10074;52.018;4.726;2022-11-15T05:56:59;3.97;;;1.67;;
19826;SDS011;10074;52.018;4.726;2022-11-15T06:02:00;2.67;;;1.90;;
19826;SDS011;10074;52.018;4.726;2022-11-15T06:07:00;4.13;;;2.97;;
19826;SDS011;10074;52.018;4.726;2022-11-15T06:12:01;2.97;;;2.03;;
19826;SDS011;10074;52.018;4.726;2022-11-15T06:17:01;2.73;;;2.07;;
19826;SDS011;10074;52.018;4.726;2022-11-15T06:22:02;2.00;;;1.90;;
19826;SDS011;10074;52.018;4.726;2022-11-15T06:27:03;3.20;;;2.73;;
19826;SDS011;10074;52.018;4.726;2022-11-15T06:32:03;1.60;;;1.50;;
19826;SDS011;10074;52.018;4.726;2022-11-15T06:37:04;2.03;;;1.47;;
19826;SDS011;10074;52.018;4.726;2022-11-15T06:42:04;1.97;;;1.87;;
19826;SDS011;10074;52.018;4.726;2022-11-15T06:47:05;2.20;;;1.70;;
19826;SDS011;10074;52.018;4.726;2022-11-15T06:52:05;2.63;;;2.43;;
19826;SDS011;10074;52.018;4.726;2022-11-15T06:57:06;1.87;;;1.77;;
19826;SDS011;10074;52.018;4.726;2022-11-15T07:02:10;4.03;;;1.97;;
19826;SDS011;10074;52.018;4.726;2022-11-15T07:07:12;1.50;;;1.33;;
19826;SDS011;10074;52.018;4.726;2022-11-15T07:12:13;2.80;;;2.27;;
19826;SDS011;10074;52.018;4.726;2022-11-15T07:17:13;2.60;;;2.40;;
19826;SDS011;10074;52.018;4.726;2022-11-15T07:22:13;1.83;;;1.73;;
19826;SDS011;10074;52.018;4.726;2022-11-15T07:27:13;1.53;;;1.43;;
19826;SDS011;10074;52.018;4.726;2022-11-15T07:32:14;2.73;;;2.53;;
19826;SDS011;10074;52.018;4.726;2022-11-15T07:37:14;1.30;;;1.20;;
19826;SDS011;10074;52.018;4.726;2022-11-15T07:42:14;1.57;;;1.47;;
19826;SDS011;10074;52.018;4.726;2022-11-15T07:47:33;2.27;;;1.73;;
19826;SDS011;10074;52.018;4.726;2022-11-15T07:52:34;1.73;;;1.50;;
19826;SDS011;10074;52.018;4.726;2022-11-15T07:57:34;1.90;;;1.43;;
19826;SDS011;10074;52.018;4.726;2022-11-15T08:02:35;2.50;;;1.77;;
19826;SDS011;10074;52.018;4.726;2022-11-15T08:07:35;2.97;;;1.97;;
19826;SDS011;10074;52.018;4.726;2022-11-15T08:12:37;1.10;;;1.10;;
19826;SDS011;10074;52.018;4.726;2022-11-15T08:17:38;1.20;;;1.10;;
19826;SDS011;10074;52.018;4.726;2022-11-15T08:22:38;1.40;;;1.30;;
19826;SDS011;10074;52.018;4.726;2022-11-15T08:27:38;1.53;;;1.43;;
19826;SDS011;10074;52.018;4.726;2022-11-15T08:32:39;1.83;;;1.47;;
19826;SDS011;10074;52.018;4.726;2022-11-15T08:37:39;3.27;;;1.73;;
19826;SDS011;10074;52.018;4.726;2022-11-15T08:42:39;1.30;;;1.03;;
19826;SDS011;10074;52.018;4.726;2022-11-15T08:47:40;3.33;;;1.77;;
19826;SDS011;10074;52.018;4.726;2022-11-15T08:52:40;3.87;;;1.80;;
19826;SDS011;10074;52.018;4.726;2022-11-15T08:57:41;4.50;;;1.23;;
19826;SDS011;10074;52.018;4.726;2022-11-15T09:02:41;16.53;;;1.93;;
19826;SDS011;10074;52.018;4.726;2022-11-15T09:07:42;1.45;;;1.23;;
19826;SDS011;10074;52.018;4.726;2022-11-15T09:12:42;2.50;;;1.47;;
19826;SDS011;10074;52.018;4.726;2022-11-15T09:17:43;1.20;;;1.10;;
19826;SDS011;10074;52.018;4.726;2022-11-15T09:22:43;2.07;;;1.30;;
19826;SDS011;10074;52.018;4.726;2022-11-15T09:27:43;1.50;;;1.40;;
19826;SDS011;10074;52.018;4.726;2022-11-15T09:32:44;1.73;;;1.27;;
19826;SDS011;10074;52.018;4.726;2022-11-15T09:37:44;3.67;;;1.37;;
19826;SDS011;10074;52.018;4.726;2022-11-15T09:42:52;3.53;;;1.53;;
19826;SDS011;10074;52.018;4.726;2022-11-15T09:53:48;1.33;;;1.13;;
19826;SDS011;10074;52.018;4.726;2022-11-15T10:04:44;1.57;;;1.43;;
19826;SDS011;10074;52.018;4.726;2022-11-15T10:09:48;1.93;;;1.00;;
19826;SDS011;10074;52.018;4.726;2022-11-15T10:14:58;0.70;;;0.70;;
19826;SDS011;10074;52.018;4.726;2022-11-15T10:20:38;1.25;;;1.05;;
19826;SDS011;10074;52.018;4.726;2022-11-15T10:25:31;1.80;;;1.70;;
19826;SDS011;10074;52.018;4.726;2022-11-15T10:30:37;1.73;;;0.90;;
19826;SDS011;10074;52.018;4.726;2022-11-15T10:35:42;1.47;;;1.00;;
19826;SDS011;10074;52.018;4.726;2022-11-15T10:40:42;1.33;;;0.90;;
19826;SDS011;10074;52.018;4.726;2022-11-15T10:45:46;1.60;;;1.25;;
19826;SDS011;10074;52.018;4.726;2022-11-15T10:50:47;0.68;;;0.68;;
19826;SDS011;10074;52.018;4.726;2022-11-15T10:55:49;1.20;;;0.90;;
19826;SDS011;10074;52.018;4.726;2022-11-15T11:00:52;1.50;;;0.77;;
19826;SDS011;10074;52.018;4.726;2022-11-15T11:06:04;2.10;;;0.98;;
19826;SDS011;10074;52.018;4.726;2022-11-15T11:11:09;1.38;;;0.98;;
19826;SDS011;10074;52.018;4.726;2022-11-15T11:21:14;0.75;;;0.70;;
19826;SDS011;10074;52.018;4.726;2022-11-15T11:43:22;0.90;;;0.80;;
19826;SDS011;10074;52.018;4.726;2022-11-15T11:48:13;0.80;;;0.80;;
19826;SDS011;10074;52.018;4.726;2022-11-15T11:58:41;1.02;;;0.98;;
19826;SDS011;10074;52.018;4.726;2022-11-15T12:15:00;2.03;;;0.80;;
19826;SDS011;10074;52.018;4.726;2022-11-15T12:19:47;1.15;;;1.15;;
19826;SDS011;10074;52.018;4.726;2022-11-15T12:24:50;5.07;;;1.20;;
19826;SDS011;10074;52.018;4.726;2022-11-15T12:29:56;0.63;;;0.63;;
19826;SDS011;10074;52.018;4.726;2022-11-15T12:35:01;1.08;;;1.05;;
19826;SDS011;10074;52.018;4.726;2022-11-15T12:45:34;0.93;;;0.93;;
19826;SDS011;10074;52.018;4.726;2022-11-15T13:01:02;0.60;;;0.60;;
19826;SDS011;10074;52.018;4.726;2022-11-15T13:06:04;1.33;;;1.23;;
19826;SDS011;10074;52.018;4.726;2022-11-15T13:16:43;2.88;;;1.50;;
19826;SDS011;10074;52.018;4.726;2022-11-15T13:21:47;1.83;;;1.30;;
19826;SDS011;10074;52.018;4.726;2022-11-15T13:27:14;3.22;;;1.45;;
19826;SDS011;10074;52.018;4.726;2022-11-15T13:32:18;1.50;;;0.98;;
19826;SDS011;10074;52.018;4.726;2022-11-15T13:42:20;0.80;;;0.80;;
19826;SDS011;10074;52.018;4.726;2022-11-15T13:47:21;1.77;;;1.17;;
19826;SDS011;10074;52.018;4.726;2022-11-15T13:52:21;0.70;;;0.70;;
19826;SDS011;10074;52.018;4.726;2022-11-15T13:57:26;1.53;;;0.70;;
19826;SDS011;10074;52.018;4.726;2022-11-15T14:02:31;3.03;;;1.13;;
19826;SDS011;10074;52.018;4.726;2022-11-15T14:07:34;1.20;;;0.80;;
19826;SDS011;10074;52.018;4.726;2022-11-15T14:12:36;1.20;;;0.80;;
19826;SDS011;10074;52.018;4.726;2022-11-15T14:17:37;2.03;;;0.90;;
19826;SDS011;10074;52.018;4.726;2022-11-15T14:22:38;3.70;;;0.70;;
19826;SDS011;10074;52.018;4.726;2022-11-15T14:28:12;1.80;;;1.30;;
19826;SDS011;10074;52.018;4.726;2022-11-15T14:38:30;0.97;;;0.97;;
19826;SDS011;10074;52.018;4.726;2022-11-15T14:43:31;1.33;;;1.03;;
19826;SDS011;10074;52.018;4.726;2022-11-15T14:48:31;0.80;;;0.60;;
19826;SDS011;10074;52.018;4.726;2022-11-15T14:53:32;1.90;;;1.10;;
19826;SDS011;10074;52.018;4.726;2022-11-15T14:58:32;1.20;;;1.03;;
19826;SDS011;10074;52.018;4.726;2022-11-15T15:03:32;1.30;;;1.20;;
19826;SDS011;10074;52.018;4.726;2022-11-15T15:08:32;1.90;;;1.10;;
19826;SDS011;10074;52.018;4.726;2022-11-15T15:13:33;1.23;;;0.60;;
19826;SDS011;10074;52.018;4.726;2022-11-15T15:18:33;1.00;;;0.90;;
19826;SDS011;10074;52.018;4.726;2022-11-15T15:23:34;0.93;;;0.70;;
19826;SDS011;10074;52.018;4.726;2022-11-15T15:28:35;1.87;;;0.73;;
19826;SDS011;10074;52.018;4.726;2022-11-15T15:33:36;2.13;;;1.17;;
19826;SDS011;10074;52.018;4.726;2022-11-15T15:38:36;0.80;;;0.60;;
19826;SDS011;10074;52.018;4.726;2022-11-15T15:43:42;0.77;;;0.60;;
19826;SDS011;10074;52.018;4.726;2022-11-15T15:48:42;1.30;;;1.20;;
19826;SDS011;10074;52.018;4.726;2022-11-15T15:53:43;0.60;;;0.60;;
19826;SDS011;10074;52.018;4.726;2022-11-15T15:58:44;1.80;;;1.13;;
19826;SDS011;10074;52.018;4.726;2022-11-15T16:03:44;0.80;;;0.70;;
19826;SDS011;10074;52.018;4.726;2022-11-15T16:08:44;0.40;;;0.40;;
19826;SDS011;10074;52.018;4.726;2022-11-15T16:13:45;1.10;;;0.50;;
19826;SDS011;10074;52.018;4.726;2022-11-15T16:18:45;1.40;;;1.30;;
19826;SDS011;10074;52.018;4.726;2022-11-15T16:23:45;1.00;;;0.77;;
19826;SDS011;10074;52.018;4.726;2022-11-15T16:28:46;1.20;;;0.87;;
19826;SDS011;10074;52.018;4.726;2022-11-15T16:33:46;2.37;;;0.90;;
19826;SDS011;10074;52.018;4.726;2022-11-15T16:38:47;2.00;;;0.67;;
19826;SDS011;10074;52.018;4.726;2022-11-15T16:43:47;1.83;;;0.97;;
19826;SDS011;10074;52.018;4.726;2022-11-15T16:48:48;0.83;;;0.73;;
19826;SDS011;10074;52.018;4.726;2022-11-15T16:53:58;1.30;;;1.20;;
19826;SDS011;10074;52.018;4.726;2022-11-15T16:58:59;1.60;;;0.50;;
19826;SDS011;10074;52.018;4.726;2022-11-15T17:04:00;1.13;;;0.70;;
19826;SDS011;10074;52.018;4.726;2022-11-15T17:09:15;3.90;;;1.33;;
19826;SDS011;10074;52.018;4.726;2022-11-15T17:14:17;1.60;;;0.80;;
19826;SDS011;10074;52.018;4.726;2022-11-15T17:19:18;0.60;;;0.60;;
19826;SDS011;10074;52.018;4.726;2022-11-15T17:24:20;0.80;;;0.67;;
19826;SDS011;10074;52.018;4.726;2022-11-15T17:29:20;1.33;;;1.23;;
19826;SDS011;10074;52.018;4.726;2022-11-15T17:34:20;0.80;;;0.50;;
19826;SDS011;10074;52.018;4.726;2022-11-15T17:39:21;1.17;;;0.83;;
19826;SDS011;10074;52.018;4.726;2022-11-15T17:44:22;1.27;;;1.23;;
19826;SDS011;10074;52.018;4.726;2022-11-15T17:49:22;0.60;;;0.60;;
19826;SDS011;10074;52.018;4.726;2022-11-15T17:54:23;1.03;;;0.97;;
19826;SDS011;10074;52.018;4.726;2022-11-15T17:59:23;1.17;;;0.70;;
19826;SDS011;10074;52.018;4.726;2022-11-15T18:04:23;1.30;;;1.20;;
19826;SDS011;10074;52.018;4.726;2022-11-15T18:09:27;1.83;;;0.80;;
19826;SDS011;10074;52.018;4.726;2022-11-15T18:14:27;3.00;;;1.70;;
19826;SDS011;10074;52.018;4.726;2022-11-15T18:19:29;1.33;;;1.00;;
19826;SDS011;10074;52.018;4.726;2022-11-15T18:29:31;5.33;;;1.03;;
19826;SDS011;10074;52.018;4.726;2022-11-15T18:34:33;0.60;;;0.60;;
19826;SDS011;10074;52.018;4.726;2022-11-15T18:39:34;0.80;;;0.80;;
19826;SDS011;10074;52.018;4.726;2022-11-15T18:44:34;0.77;;;0.77;;
19826;SDS011;10074;52.018;4.726;2022-11-15T18:49:35;1.10;;;1.00;;
19826;SDS011;10074;52.018;4.726;2022-11-15T18:54:35;2.00;;;1.80;;
19826;SDS011;10074;52.018;4.726;2022-11-15T18:59:35;3.43;;;1.20;;
19826;SDS011;10074;52.018;4.726;2022-11-15T19:04:35;1.47;;;1.10;;
19826;SDS011;10074;52.018;4.726;2022-11-15T19:09:36;1.02;;;0.70;;
19826;SDS011;10074;52.018;4.726;2022-11-15T19:14:37;1.10;;;1.00;;
19826;SDS011;10074;52.018;4.726;2022-11-15T19:19:37;3.05;;;1.40;;
19826;SDS011;10074;52.018;4.726;2022-11-15T19:24:38;0.73;;;0.70;;
19826;SDS011;10074;52.018;4.726;2022-11-15T19:29:39;1.40;;;0.90;;
19826;SDS011;10074;52.018;4.726;2022-11-15T19:34:40;1.03;;;0.90;;
19826;SDS011;10074;52.018;4.726;2022-11-15T19:39:40;1.00;;;1.00;;
19826;SDS011;10074;52.018;4.726;2022-11-15T19:44:41;2.47;;;1.00;;
19826;SDS011;10074;52.018;4.726;2022-11-15T19:49:41;0.53;;;0.53;;
19826;SDS011;10074;52.018;4.726;2022-11-15T19:54:42;1.70;;;1.10;;
19826;SDS011;10074;52.018;4.726;2022-11-15T19:59:42;1.20;;;1.10;;
19826;SDS011;10074;52.018;4.726;2022-11-15T20:04:42;1.73;;;1.33;;
19826;SDS011;10074;52.018;4.726;2022-11-15T20:09:43;0.93;;;0.93;;
19826;SDS011;10074;52.018;4.726;2022-11-15T20:14:43;1.10;;;1.00;;
19826;SDS011;10074;52.018;4.726;2022-11-15T20:19:44;0.80;;;0.80;;
19826;SDS011;10074;52.018;4.726;2022-11-15T20:24:45;1.35;;;1.17;;
19826;SDS011;10074;52.018;4.726;2022-11-15T20:29:45;0.70;;;0.70;;
19826;SDS011;10074;52.018;4.726;2022-11-15T20:34:50;1.37;;;0.90;;
19826;SDS011;10074;52.018;4.726;2022-11-15T20:39:50;0.60;;;0.60;;
19826;SDS011;10074;52.018;4.726;2022-11-15T20:44:51;0.97;;;0.97;;
19826;SDS011;10074;52.018;4.726;2022-11-15T20:49:51;0.60;;;0.60;;
19826;SDS011;10074;52.018;4.726;2022-11-15T20:54:52;1.13;;;0.90;;
19826;SDS011;10074;52.018;4.726;2022-11-15T20:59:53;1.73;;;0.87;;
19826;SDS011;10074;52.018;4.726;2022-11-15T21:04:53;2.93;;;1.47;;
19826;SDS011;10074;52.018;4.726;2022-11-15T21:09:53;1.07;;;1.00;;
19826;SDS011;10074;52.018;4.726;2022-11-15T21:15:12;0.97;;;0.97;;
19826;SDS011;10074;52.018;4.726;2022-11-15T21:20:12;1.97;;;1.23;;
19826;SDS011;10074;52.018;4.726;2022-11-15T21:25:14;1.40;;;1.30;;
19826;SDS011;10074;52.018;4.726;2022-11-15T21:30:14;1.93;;;1.00;;
19826;SDS011;10074;52.018;4.726;2022-11-15T21:35:15;0.83;;;0.83;;
19826;SDS011;10074;52.018;4.726;2022-11-15T21:40:16;10.03;;;1.30;;
19826;SDS011;10074;52.018;4.726;2022-11-15T21:45:16;2.83;;;1.03;;
19826;SDS011;10074;52.018;4.726;2022-11-15T21:50:16;1.60;;;0.80;;
19826;SDS011;10074;52.018;4.726;2022-11-15T21:55:17;1.17;;;1.07;;
19826;SDS011;10074;52.018;4.726;2022-11-15T22:00:17;1.00;;;1.00;;
19826;SDS011;10074;52.018;4.726;2022-11-15T22:05:36;1.43;;;1.10;;
19826;SDS011;10074;52.018;4.726;2022-11-15T22:10:37;1.20;;;1.00;;
19826;SDS011;10074;52.018;4.726;2022-11-15T22:15:37;0.70;;;0.70;;
19826;SDS011;10074;52.018;4.726;2022-11-15T22:20:37;1.70;;;0.90;;
19826;SDS011;10074;52.018;4.726;2022-11-15T22:25:38;2.00;;;1.30;;
19826;SDS011;10074;52.018;4.726;2022-11-15T22:30:38;2.23;;;2.03;;
19826;SDS011;10074;52.018;4.726;2022-11-15T22:35:40;1.07;;;1.03;;
19826;SDS011;10074;52.018;4.726;2022-11-15T22:40:40;1.53;;;1.20;;
19826;SDS011;10074;52.018;4.726;2022-11-15T22:50:50;1.67;;;1.57;;
19826;SDS011;10074;52.018;4.726;2022-11-15T22:55:51;1.90;;;1.27;;
19826;SDS011;10074;52.018;4.726;2022-11-15T23:00:54;1.30;;;1.20;;
19826;SDS011;10074;52.018;4.726;2022-11-15T23:06:00;1.10;;;1.00;;
19826;SDS011;10074;52.018;4.726;2022-11-15T23:11:02;1.40;;;1.20;;
19826;SDS011;10074;52.018;4.726;2022-11-15T23:16:22;1.00;;;1.00;;
19826;SDS011;10074;52.018;4.726;2022-11-15T23:21:40;1.00;;;0.90;;
19826;SDS011;10074;52.018;4.726;2022-11-15T23:27:04;3.23;;;1.60;;
19826;SDS011;10074;52.018;4.726;2022-11-15T23:32:08;1.57;;;1.47;;
19826;SDS011;10074;52.018;4.726;2022-11-15T23:37:27;1.43;;;1.27;;
19826;SDS011;10074;52.018;4.726;2022-11-15T23:42:28;1.00;;;0.80;;
19826;SDS011;10074;52.018;4.726;2022-11-15T23:47:28;1.10;;;1.10;;
19826;SDS011;10074;52.018;4.726;2022-11-15T23:52:28;1.10;;;1.03;;
19826;SDS011;10074;52.018;4.726;2022-11-15T23:57:29;1.00;;;1.00;;
